Time;durP1;ratioP1;P1;durP2;ratioP2;P2;SDS_P1;SDS_P2;PMS_P1;PMS_P2;Temp;Humidity;BMP_temperature;BMP_pressure;BME280_temperature;BME280_humidity;BME280_pressure;Samples;Min_cycle;Max_cycle;Signal;HPM_P1;HPM_P2
2023/07/31 00:00:23;;;;;;;;;;;;;;;24.27;57.67;96576.25;620882;228;67387;-64
2023/07/31 00:02:52;;;;;;;;;;;;;;;24.27;57.80;96579.72;620940;228;67051;-64
2023/07/31 00:05:20;;;;;;;;;;;;;;;24.27;57.82;96576.25;620941;228;64833;-64
2023/07/31 00:07:48;;;;;;;;;;;;;;;24.26;57.85;96569.30;620924;228;67237;-64
2023/07/31 00:10:15;;;;;;;;;;;;;;;24.26;57.81;96569.30;620951;228;66942;-62
2023/07/31 00:12:43;;;;;;;;;;;;;;;24.26;57.80;96564.72;620877;227;64787;-62
2023/07/31 00:15:11;;;;;;;;;;;;;;;24.27;57.79;96557.45;620982;228;67330;-62
2023/07/31 00:17:39;;;;;;;;;;;;;;;24.27;58.00;96554.77;620936;228;67060;-62
2023/07/31 00:20:07;;;;;;;;;;;;;;;24.27;57.93;96549.39;620920;228;63487;-62
2023/07/31 00:22:36;;;;;;;;;;;;;;;24.27;57.92;96544.02;620930;228;67160;-62
2023/07/31 00:25:06;;;;;;;;;;;;;;;24.26;57.96;96543.23;620933;228;67065;-62
2023/07/31 00:27:33;;;;;;;;;;;;;;;24.26;57.93;96545.92;620944;228;63678;-62
2023/07/31 00:30:00;;;;;;;;;;;;;;;24.27;57.95;96544.81;620930;228;67171;-62
2023/07/31 00:32:28;;;;;;;;;;;;;;;24.26;57.96;96540.55;620941;228;64856;-62
2023/07/31 00:34:55;;;;;;;;;;;;;;;24.27;57.90;96549.39;620933;228;64696;-62
2023/07/31 00:37:23;;;;;;;;;;;;;;;24.26;57.97;96537.86;620939;228;64359;-62
2023/07/31 00:39:51;;;;;;;;;;;;;;;24.25;57.94;96536.26;620982;228;64633;-63
2023/07/31 00:42:18;;;;;;;;;;;;;;;24.26;58.10;96537.08;620895;228;62397;-62
2023/07/31 00:44:46;;;;;;;;;;;;;;;24.25;58.05;96536.26;620943;228;67143;-62
2023/07/31 00:47:13;;;;;;;;;;;;;;;24.25;58.01;96538.95;620920;228;64883;-62
2023/07/31 00:49:41;;;;;;;;;;;;;;;24.26;57.93;96531.70;620927;228;64673;-62
2023/07/31 00:52:10;;;;;;;;;;;;;;;24.25;57.97;96525.52;620966;228;67208;-62
2023/07/31 00:54:38;;;;;;;;;;;;;;;24.26;58.04;96523.66;620885;228;64945;-62
2023/07/31 00:57:08;;;;;;;;;;;;;;;24.26;58.01;96518.28;620909;228;65359;-64
2023/07/31 00:59:35;;;;;;;;;;;;;;;24.25;58.12;96519.36;620913;228;64958;-64
2023/07/31 01:02:03;;;;;;;;;;;;;;;24.26;58.27;96518.28;620925;228;65223;-64
2023/07/31 01:04:31;;;;;;;;;;;;;;;24.25;58.36;96513.98;620993;228;64711;-64
2023/07/31 01:07:06;;;;;;;;;;;;;;;24.26;58.12;96505.64;620886;228;67678;-64
2023/07/31 01:09:45;;;;;;;;;;;;;;;24.25;58.18;96504.04;620745;228;65042;-64
2023/07/31 01:12:15;;;;;;;;;;;;;;;24.25;58.12;96498.67;620853;227;65121;-64
2023/07/31 01:14:45;;;;;;;;;;;;;;;24.25;58.22;96501.35;620939;228;67428;-65
2023/07/31 01:17:13;;;;;;;;;;;;;;;24.25;58.29;96498.67;619976;228;64621;-65
2023/07/31 01:19:40;;;;;;;;;;;;;;;24.24;58.30;96504.36;620960;228;64770;-65
2023/07/31 01:22:12;;;;;;;;;;;;;;;24.24;58.21;96499.78;620931;228;66797;-65
2023/07/31 01:24:45;;;;;;;;;;;;;;;24.25;58.28;96495.19;620787;228;64890;-65
2023/07/31 01:27:17;;;;;;;;;;;;;;;24.25;58.24;96487.14;618798;228;62435;-65
2023/07/31 01:29:46;;;;;;;;;;;;;;;24.24;58.37;96483.66;620639;228;67063;-64
2023/07/31 01:32:14;;;;;;;;;;;;;;;24.24;58.41;96480.98;620868;228;66933;-65
2023/07/31 01:34:42;;;;;;;;;;;;;;;24.25;58.45;96479.09;620979;228;64597;-65
2023/07/31 01:37:10;;;;;;;;;;;;;;;24.25;58.40;96481.77;620895;228;64923;-65
2023/07/31 01:39:37;;;;;;;;;;;;;;;24.25;58.40;96471.03;620905;228;66906;-65
2023/07/31 01:42:05;;;;;;;;;;;;;;;24.24;58.58;96469.45;620929;228;62668;-65
2023/07/31 01:44:33;;;;;;;;;;;;;;;24.23;58.67;96468.66;620922;228;67092;-65
2023/07/31 01:47:00;;;;;;;;;;;;;;;24.24;58.76;96464.09;620959;228;66917;-65
2023/07/31 01:49:28;;;;;;;;;;;;;;;24.24;58.68;96461.40;620932;228;63479;-65
2023/07/31 01:51:55;;;;;;;;;;;;;;;24.24;58.47;96450.66;620947;228;64862;-65
2023/07/31 01:54:23;;;;;;;;;;;;;;;24.24;58.56;96459.50;620927;228;66824;-65
2023/07/31 01:56:50;;;;;;;;;;;;;;;24.25;58.69;96450.34;620917;228;62645;-65
2023/07/31 01:59:29;;;;;;;;;;;;;;;24.25;58.73;96444.18;620958;228;67069;-65
2023/07/31 02:01:59;;;;;;;;;;;;;;;24.25;58.69;96449.55;618815;228;48501;-64
2023/07/31 02:04:27;;;;;;;;;;;;;;;24.24;58.71;96443.39;620927;228;64611;-64
2023/07/31 02:06:54;;;;;;;;;;;;;;;24.24;58.83;96437.23;620932;228;67161;-64
2023/07/31 02:09:22;;;;;;;;;;;;;;;24.24;58.85;96443.39;620885;228;67263;-64
2023/07/31 02:11:49;;;;;;;;;;;;;;;24.24;58.99;96439.92;620878;227;64757;-64
2023/07/31 02:14:17;;;;;;;;;;;;;;;24.24;58.80;96434.55;620970;228;67302;-64
2023/07/31 02:16:44;;;;;;;;;;;;;;;24.24;58.70;96438.02;620868;228;64767;-64
2023/07/31 02:19:12;;;;;;;;;;;;;;;24.22;58.79;96428.69;620886;228;64762;-64
2023/07/31 02:21:40;;;;;;;;;;;;;;;24.25;58.91;96438.81;620649;224;67686;-64
2023/07/31 02:24:07;;;;;;;;;;;;;;;24.24;59.03;96439.92;617598;229;65657;-64
2023/07/31 02:26:35;;;;;;;;;;;;;;;24.25;59.06;96438.81;617640;229;64577;-64
2023/07/31 02:29:03;;;;;;;;;;;;;;;24.25;59.04;96441.50;617631;229;68383;-64
2023/07/31 02:31:30;;;;;;;;;;;;;;;24.25;59.15;96438.81;618404;224;66957;-64
2023/07/31 02:33:58;;;;;;;;;;;;;;;24.24;58.93;96445.29;618973;227;64528;-64
2023/07/31 02:36:26;;;;;;;;;;;;;;;24.24;59.04;96448.77;604782;229;68427;-64
2023/07/31 02:38:53;;;;;;;;;;;;;;;24.24;58.99;96450.66;610506;229;67646;-64
2023/07/31 02:41:21;;;;;;;;;;;;;;;24.25;58.94;96460.29;617659;229;64551;-65
2023/07/31 02:43:48;;;;;;;;;;;;;;;24.25;59.14;96462.98;617660;229;67423;-64
2023/07/31 02:46:16;;;;;;;;;;;;;;;24.24;59.16;96461.40;617662;229;64139;-62
2023/07/31 02:48:44;;;;;;;;;;;;;;;24.24;59.29;96477.51;617668;229;64347;-62
2023/07/31 02:51:11;;;;;;;;;;;;;;;24.23;59.09;96474.03;617634;229;66929;-62
2023/07/31 02:53:39;;;;;;;;;;;;;;;24.24;59.14;96482.88;617653;229;67428;-62
2023/07/31 02:56:06;;;;;;;;;;;;;;;24.23;59.05;96483.98;617659;229;64614;-62
2023/07/31 02:58:33;;;;;;;;;;;;;;;24.25;59.11;96492.51;617674;229;66830;-64
2023/07/31 03:01:02;;;;;;;;;;;;;;;24.24;59.02;96494.41;617649;229;64642;-64
2023/07/31 03:03:29;;;;;;;;;;;;;;;24.24;59.22;96490.94;617666;229;65650;-64
2023/07/31 03:05:57;;;;;;;;;;;;;;;24.24;59.28;96498.98;617652;229;64587;-64
2023/07/31 03:08:25;;;;;;;;;;;;;;;24.24;59.29;96496.30;617643;229;67263;-64
2023/07/31 03:10:52;;;;;;;;;;;;;;;24.23;59.34;96503.57;617609;229;65766;-64
2023/07/31 03:13:19;;;;;;;;;;;;;;;24.23;59.26;96500.89;617591;229;64870;-64
2023/07/31 03:15:47;;;;;;;;;;;;;;;24.24;59.45;96509.73;617602;229;67457;-64
2023/07/31 03:18:14;;;;;;;;;;;;;;;24.24;59.38;96501.67;617640;229;64655;-64
2023/07/31 03:20:45;;;;;;;;;;;;;;;24.24;59.38;96507.05;617629;229;67302;-64
2023/07/31 03:23:13;;;;;;;;;;;;;;;24.24;59.30;96504.36;617648;229;67018;-64
2023/07/31 03:25:42;;;;;;;;;;;;;;;24.23;59.36;96513.52;617620;229;62709;-64
2023/07/31 03:28:09;;;;;;;;;;;;;;;24.23;59.45;96510.84;617628;229;67735;-65
2023/07/31 03:30:38;;;;;;;;;;;;;;;24.23;59.45;96511.63;617656;229;64961;-63
2023/07/31 03:33:05;;;;;;;;;;;;;;;24.23;59.28;96521.58;617649;229;63751;-62
2023/07/31 03:35:33;;;;;;;;;;;;;;;24.23;59.40;96519.68;617639;229;64408;-63
2023/07/31 03:38:00;;;;;;;;;;;;;;;24.21;59.52;96518.39;617634;229;67038;-63
2023/07/31 03:40:28;;;;;;;;;;;;;;;24.22;59.39;96514.60;617599;229;62430;-62
2023/07/31 03:42:55;;;;;;;;;;;;;;;24.24;59.42;96528.52;617722;229;65380;-62
2023/07/31 03:45:23;;;;;;;;;;;;;;;24.24;59.66;96517.78;617636;229;66862;-63
2023/07/31 03:47:50;;;;;;;;;;;;;;;24.22;59.44;96519.97;617654;229;64775;-63
2023/07/31 03:50:18;;;;;;;;;;;;;;;24.21;59.49;96513.81;617670;229;65034;-62
2023/07/31 03:52:45;;;;;;;;;;;;;;;24.21;59.30;96516.50;617649;229;67178;-63
2023/07/31 03:55:13;;;;;;;;;;;;;;;24.23;59.36;96518.89;617713;229;62637;-62
2023/07/31 03:57:40;;;;;;;;;;;;;;;24.21;59.52;96523.77;617655;229;67201;-63
2023/07/31 04:00:08;;;;;;;;;;;;;;;24.23;59.37;96524.27;617633;229;67084;-62
2023/07/31 04:02:42;;;;;;;;;;;;;;;24.21;59.37;96513.02;617672;229;62577;-62
2023/07/31 04:05:10;;;;;;;;;;;;;;;24.21;59.35;96518.39;617629;229;65043;-63
2023/07/31 04:07:38;;;;;;;;;;;;;;;24.21;59.54;96524.55;617663;229;67118;-63
2023/07/31 04:10:05;;;;;;;;;;;;;;;24.24;59.53;96528.52;617697;229;64780;-63
2023/07/31 04:12:33;;;;;;;;;;;;;;;24.21;59.56;96526.45;617487;229;67168;-63
2023/07/31 04:15:00;;;;;;;;;;;;;;;24.23;59.44;96527.73;617472;230;65129;-63
2023/07/31 04:17:28;;;;;;;;;;;;;;;24.23;59.40;96535.80;617443;230;63486;-63
2023/07/31 04:19:55;;;;;;;;;;;;;;;24.21;59.45;96529.14;617467;230;65038;-62
2023/07/31 04:22:23;;;;;;;;;;;;;;;24.21;59.65;96534.50;617525;230;64729;-63
2023/07/31 04:24:50;;;;;;;;;;;;;;;24.20;60.39;96532.90;617424;230;64997;-62
2023/07/31 04:27:18;;;;;;;;;;;;;;;24.20;60.33;96535.58;617451;230;65060;-63
2023/07/31 04:29:47;;;;;;;;;;;;;;;24.21;59.52;96534.50;617415;230;65056;-63
2023/07/31 04:32:20;;;;;;;;;;;;;;;24.21;59.44;96542.55;617471;230;64768;-62
2023/07/31 04:34:44;;;;;;;;;;;;;;;24.20;59.48;96541.77;617223;229;67339;-63
2023/07/31 04:37:11;;;;;;;;;;;;;;;24.20;59.44;96533.72;617437;230;64924;-63
2023/07/31 04:39:40;;;;;;;;;;;;;;;24.21;59.54;96537.19;617429;230;62691;-63
2023/07/31 04:42:08;;;;;;;;;;;;;;;24.21;59.54;96542.55;617448;230;67191;-63
2023/07/31 04:44:35;;;;;;;;;;;;;;;24.20;59.49;96549.83;617399;230;66875;-63
2023/07/31 04:47:03;;;;;;;;;;;;;;;24.22;59.60;96546.82;617386;230;63529;-63
2023/07/31 04:49:31;;;;;;;;;;;;;;;24.21;59.53;96556.77;617391;230;66980;-63
2023/07/31 04:51:58;;;;;;;;;;;;;;;24.21;59.53;96547.92;617301;230;67125;-63
2023/07/31 04:54:26;;;;;;;;;;;;;;;24.21;59.46;96545.24;617340;230;64383;-63
2023/07/31 04:56:53;;;;;;;;;;;;;;;24.20;59.47;96555.20;617356;230;67463;-63
2023/07/31 04:59:21;;;;;;;;;;;;;;;24.21;59.49;96550.61;617350;230;67104;-63
2023/07/31 05:01:48;;;;;;;;;;;;;;;24.20;59.46;96544.45;617386;230;62910;-63
2023/07/31 05:04:16;;;;;;;;;;;;;;;24.21;59.43;96550.61;617344;230;64903;-63
2023/07/31 05:06:44;;;;;;;;;;;;;;;24.20;59.52;96551.69;617330;230;65152;-63
2023/07/31 05:09:12;;;;;;;;;;;;;;;24.21;59.55;96561.35;617354;230;62679;-63
2023/07/31 05:11:42;;;;;;;;;;;;;;;24.20;59.66;96559.74;617346;229;67204;-63
2023/07/31 05:14:09;;;;;;;;;;;;;;;24.21;59.71;96561.35;617375;230;67294;-63
2023/07/31 05:16:37;;;;;;;;;;;;;;;24.21;59.88;96567.52;617379;230;62602;-63
2023/07/31 05:19:04;;;;;;;;;;;;;;;24.20;59.93;96568.62;617315;228;65283;-63
2023/07/31 05:21:32;;;;;;;;;;;;;;;24.20;60.59;96565.94;617348;230;64888;-63
2023/07/31 05:23:59;;;;;;;;;;;;;;;24.19;59.90;96568.91;617359;230;63417;-63
2023/07/31 05:26:27;;;;;;;;;;;;;;;24.20;59.87;96573.17;617381;229;67299;-63
2023/07/31 05:28:54;;;;;;;;;;;;;;;24.19;59.79;96574.28;617346;230;64857;-63
2023/07/31 05:31:22;;;;;;;;;;;;;;;24.19;59.79;96572.38;617348;230;62605;-62
2023/07/31 05:33:50;;;;;;;;;;;;;;;24.18;59.89;96567.33;617309;230;67225;-63
2023/07/31 05:36:18;;;;;;;;;;;;;;;24.20;59.86;96573.17;617381;229;66794;-62
2023/07/31 05:38:45;;;;;;;;;;;;;;;24.19;59.91;96566.22;617395;230;64689;-63
2023/07/31 05:41:13;;;;;;;;;;;;;;;24.20;59.90;96567.80;617392;229;65022;-62
2023/07/31 05:43:42;;;;;;;;;;;;;;;24.19;59.88;96574.28;617340;230;65279;-63
2023/07/31 05:46:11;;;;;;;;;;;;;;;24.19;60.13;96571.59;617228;230;64704;-63
2023/07/31 05:48:39;;;;;;;;;;;;;;;24.19;60.05;96568.91;617342;230;65141;-63
2023/07/31 05:51:07;;;;;;;;;;;;;;;24.19;60.00;96568.91;617265;230;67053;-63
2023/07/31 05:53:35;;;;;;;;;;;;;;;24.19;60.04;96566.22;617333;230;64755;-61
2023/07/31 05:56:03;;;;;;;;;;;;;;;24.18;59.89;96557.38;617330;230;67230;-60
2023/07/31 05:58:30;;;;;;;;;;;;;;;24.18;60.12;96568.12;616629;230;65149;-61
2023/07/31 06:00:58;;;;;;;;;;;;;;;24.18;61.59;96568.12;617350;229;64768;-61
2023/07/31 06:03:25;;;;;;;;;;;;;;;24.19;62.78;96568.91;617326;230;66932;-60
2023/07/31 06:05:53;;;;;;;;;;;;;;;24.18;61.84;96567.33;617253;230;66997;-60
2023/07/31 06:08:20;;;;;;;;;;;;;;;24.18;64.73;96568.12;617060;230;63496;-60
2023/07/31 06:10:48;;;;;;;;;;;;;;;24.18;66.38;96570.02;617305;230;65379;-59
2023/07/31 06:13:16;;;;;;;;;;;;;;;24.15;64.19;96564.14;617263;228;64933;-59
2023/07/31 06:15:43;;;;;;;;;;;;;;;24.15;65.88;96560.67;617415;230;64527;-60
2023/07/31 06:18:10;;;;;;;;;;;;;;;24.14;62.95;96567.12;617458;230;67175;-60
2023/07/31 06:20:40;;;;;;;;;;;;;;;24.14;64.28;96567.94;617345;230;67001;-61
2023/07/31 06:23:07;;;;;;;;;;;;;;;24.12;62.09;96570.13;617405;230;64692;-61
2023/07/31 06:25:37;;;;;;;;;;;;;;;24.14;62.10;96564.44;617399;228;48895;-60
2023/07/31 06:28:04;;;;;;;;;;;;;;;24.14;61.88;96562.57;617368;228;64902;-64
2023/07/31 06:30:32;;;;;;;;;;;;;;;24.16;62.15;96564.94;617468;230;64782;-61
2023/07/31 06:32:59;;;;;;;;;;;;;;;24.16;62.28;96564.94;617379;230;64906;-62
2023/07/31 06:35:32;;;;;;;;;;;;;;;24.17;63.59;96561.14;617394;230;67015;-64
2023/07/31 06:37:56;;;;;;;;;;;;;;;24.17;62.49;96560.35;617202;229;65763;-64
2023/07/31 06:40:24;;;;;;;;;;;;;;;24.17;62.99;96566.52;617255;229;67071;-63
2023/07/31 06:42:52;;;;;;;;;;;;;;;24.18;64.15;96561.96;617459;230;64932;-64
2023/07/31 06:45:19;;;;;;;;;;;;;;;24.18;64.76;96559.28;617388;230;62582;-63
2023/07/31 06:47:51;;;;;;;;;;;;;;;24.18;63.18;96561.96;617390;230;67174;-64
2023/07/31 06:50:16;;;;;;;;;;;;;;;24.18;63.10;96559.28;617267;229;64169;-65
2023/07/31 06:52:44;;;;;;;;;;;;;;;24.20;64.02;96567.80;617387;230;62598;-62
2023/07/31 06:55:19;;;;;;;;;;;;;;;24.20;63.30;96568.62;617414;228;66974;-62
2023/07/31 06:57:53;;;;;;;;;;;;;;;24.20;63.01;96562.43;617372;230;67147;-63
2023/07/31 07:00:22;;;;;;;;;;;;;;;24.20;63.21;96573.17;617425;230;62748;-63
2023/07/31 07:02:50;;;;;;;;;;;;;;;24.21;64.46;96572.09;617351;230;66922;-63
2023/07/31 07:05:18;;;;;;;;;;;;;;;24.23;62.63;96580.65;617420;230;67026;-73
2023/07/31 07:07:45;;;;;;;;;;;;;;;24.24;62.06;96571.48;617511;230;64772;-75
2023/07/31 07:10:13;;;;;;;;;;;;;;;24.24;62.43;96577.64;617442;230;66888;-72
2023/07/31 07:12:40;;;;;;;;;;;;;;;24.24;63.02;96576.86;617330;228;65021;-75
2023/07/31 07:15:10;;;;;;;;;;;;;;;24.24;63.46;96576.86;617385;230;63368;-74
2023/07/31 07:17:37;;;;;;;;;;;;;;;24.23;62.54;96572.59;617333;230;66759;-74
2023/07/31 07:20:05;;;;;;;;;;;;;;;24.24;62.63;96574.17;617364;230;66868;-70
2023/07/31 07:22:33;;;;;;;;;;;;;;;24.24;64.14;96576.86;617413;230;64717;-70
2023/07/31 07:25:00;;;;;;;;;;;;;;;24.23;64.89;96578.75;617362;229;67436;-72
2023/07/31 07:27:29;;;;;;;;;;;;;;;24.24;64.75;96582.22;617430;230;67553;-71
2023/07/31 07:29:56;;;;;;;;;;;;;;;24.24;65.45;96576.86;617371;230;64790;-63
2023/07/31 07:32:24;;;;;;;;;;;;;;;24.17;63.57;96566.52;617333;229;64847;-74
2023/07/31 07:34:51;;;;;;;;;;;;;;;24.24;61.61;96574.17;617449;230;65037;-73
2023/07/31 07:37:19;;;;;;;;;;;;;;;24.24;61.80;96576.86;617397;230;64830;-72
2023/07/31 07:39:46;;;;;;;;;;;;;;;24.25;67.49;96584.59;617418;230;67162;-73
2023/07/31 07:42:14;;;;;;;;;;;;;;;24.22;63.94;96584.41;617428;230;67036;-72
2023/07/31 07:44:41;;;;;;;;;;;;;;;24.24;68.12;96588.38;617333;230;64769;-61
2023/07/31 07:47:09;;;;;;;;;;;;;;;24.21;64.46;96580.15;617399;230;67286;-61
2023/07/31 07:49:36;;;;;;;;;;;;;;;24.22;64.13;96587.09;617418;230;64921;-61
2023/07/31 07:52:04;;;;;;;;;;;;;;;24.23;64.98;96586.02;617373;230;64697;-60
2023/07/31 07:54:32;;;;;;;;;;;;;;;24.23;66.95;96578.75;617416;230;67144;-60
2023/07/31 07:56:59;;;;;;;;;;;;;;;24.23;66.96;96586.02;617381;230;67120;-60
2023/07/31 07:59:27;;;;;;;;;;;;;;;24.21;65.29;96585.52;617327;229;64758;-61
2023/07/31 08:01:54;;;;;;;;;;;;;;;24.20;66.19;96586.59;617362;230;64435;-61
2023/07/31 08:04:22;;;;;;;;;;;;;;;24.20;62.06;96581.22;617420;230;64661;-62
2023/07/31 08:06:49;;;;;;;;;;;;;;;24.23;65.82;96578.75;617332;230;62502;-66
2023/07/31 08:09:17;;;;;;;;;;;;;;;24.21;61.32;96580.15;617377;229;67335;-65
2023/07/31 08:11:44;;;;;;;;;;;;;;;24.26;60.57;96574.67;617418;229;65274;-63
2023/07/31 08:14:12;;;;;;;;;;;;;;;24.26;60.52;96578.14;617576;229;62734;-63
2023/07/31 08:16:39;;;;;;;;;;;;;;;24.26;60.60;96586.20;617584;229;67139;-71
2023/07/31 08:19:07;;;;;;;;;;;;;;;24.26;60.71;96580.04;617670;227;67022;-67
2023/07/31 08:21:34;;;;;;;;;;;;;;;24.25;60.96;96573.85;624587;227;62744;-69
2023/07/31 08:24:02;;;;;;;;;;;;;;;24.27;60.86;96584.30;624665;227;64887;-69
2023/07/31 08:26:29;;;;;;;;;;;;;;;24.27;60.80;96584.30;624688;227;64922;-67
2023/07/31 08:28:57;;;;;;;;;;;;;;;24.28;59.91;96577.82;624649;227;62653;-68
2023/07/31 08:31:25;;;;;;;;;;;;;;;24.29;60.02;96582.11;624700;227;64713;-69
2023/07/31 08:33:52;;;;;;;;;;;;;;;24.29;59.70;96582.91;624639;227;67008;-69
2023/07/31 08:36:20;;;;;;;;;;;;;;;24.30;60.26;96575.64;624598;227;62702;-68
2023/07/31 08:38:47;;;;;;;;;;;;;;;24.30;60.61;96570.27;624723;227;67414;-69
2023/07/31 08:41:17;;;;;;;;;;;;;;;24.29;60.76;96585.59;624585;227;66988;-68
2023/07/31 08:43:46;;;;;;;;;;;;;;;24.29;61.05;96579.43;624685;227;64879;-68
2023/07/31 08:46:17;;;;;;;;;;;;;;;24.29;60.84;96579.43;624523;227;67139;-68
2023/07/31 08:48:45;;;;;;;;;;;;;;;24.29;60.77;96574.84;624676;227;66949;-68
2023/07/31 08:51:14;;;;;;;;;;;;;;;24.29;60.76;96574.06;624709;227;62661;-67
2023/07/31 08:53:42;;;;;;;;;;;;;;;24.29;60.78;96582.11;624717;227;64530;-67
2023/07/31 08:56:09;;;;;;;;;;;;;;;24.30;60.75;96578.32;624652;227;64882;-67
2023/07/31 08:58:38;;;;;;;;;;;;;;;24.30;60.73;96581.01;624667;227;62698;-67
2023/07/31 09:01:05;;;;;;;;;;;;;;;24.29;60.72;96576.75;624655;227;67220;-67
2023/07/31 09:03:37;;;;;;;;;;;;;;;24.29;60.57;96574.84;624634;227;67053;-66
2023/07/31 09:06:06;;;;;;;;;;;;;;;24.30;59.99;96586.37;624725;227;64832;-66
2023/07/31 09:08:34;;;;;;;;;;;;;;;24.32;59.74;96578.82;624669;227;67242;-66
2023/07/31 09:11:07;;;;;;;;;;;;;;;24.32;59.33;96584.19;624535;227;67133;-67
2023/07/31 09:13:33;;;;;;;;;;;;;;;24.32;58.79;96579.61;624394;226;64711;-68
2023/07/31 09:16:01;;;;;;;;;;;;;;;24.33;58.93;96586.56;624640;227;65057;-67
2023/07/31 09:18:30;;;;;;;;;;;;;;;24.33;59.17;96589.24;623619;227;64616;-67
2023/07/31 09:21:02;;;;;;;;;;;;;;;24.33;60.71;96597.30;616389;229;64971;-67
2023/07/31 09:23:32;;;;;;;;;;;;;;;24.33;60.74;96596.52;617440;229;67192;-68
2023/07/31 09:26:00;;;;;;;;;;;;;;;24.32;59.85;96589.56;614907;229;65280;-68
2023/07/31 09:28:29;;;;;;;;;;;;;;;24.31;60.62;96590.67;617564;229;64834;-67
2023/07/31 09:30:56;;;;;;;;;;;;;;;24.31;60.78;96587.98;617455;229;64671;-67
2023/07/31 09:33:24;;;;;;;;;;;;;;;24.31;60.79;96582.61;617573;229;67143;-68
2023/07/31 09:35:52;;;;;;;;;;;;;;;24.31;60.73;96566.50;618210;227;64554;-67
2023/07/31 09:38:19;;;;;;;;;;;;;;;24.31;60.67;96572.66;620473;227;67185;-67
2023/07/31 09:40:47;;;;;;;;;;;;;;;24.32;60.46;96573.45;621775;227;67292;-67
2023/07/31 09:43:19;;;;;;;;;;;;;;;24.32;59.69;96563.50;624082;227;63636;-68
2023/07/31 09:45:47;;;;;;;;;;;;;;;24.33;59.50;96575.03;624007;227;66852;-67
2023/07/31 09:48:16;;;;;;;;;;;;;;;24.34;59.16;96573.95;624246;227;67183;-68
2023/07/31 09:50:45;;;;;;;;;;;;;;;24.35;59.75;96570.16;624068;227;64742;-64
2023/07/31 09:53:13;;;;;;;;;;;;;;;24.34;58.96;96582.01;624181;227;65206;-64
2023/07/31 09:55:41;;;;;;;;;;;;;;;24.35;60.48;96586.27;624277;227;67115;-64
2023/07/31 09:58:10;;;;;;;;;;;;;;;24.34;60.46;96596.22;624201;227;64810;-64
2023/07/31 10:00:37;;;;;;;;;;;;;;;24.34;60.56;96598.12;624221;227;65088;-64
2023/07/31 10:03:06;;;;;;;;;;;;;;;24.33;60.87;96597.30;624221;227;64969;-64
2023/07/31 10:05:42;;;;;;;;;;;;;;;24.33;60.53;96599.98;624298;227;64764;-64
2023/07/31 10:08:10;;;;;;;;;;;;;;;24.33;60.58;96607.25;624063;227;67241;-64
2023/07/31 10:10:38;;;;;;;;;;;;;;;24.32;60.59;96606.46;624218;227;67170;-64
2023/07/31 10:13:06;;;;;;;;;;;;;;;24.33;60.64;96610.73;622604;227;64691;-67
2023/07/31 10:15:35;;;;;;;;;;;;;;;24.33;60.63;96608.05;622140;228;67404;-64
2023/07/31 10:18:03;;;;;;;;;;;;;;;24.33;60.79;96607.25;622211;228;67041;-64
2023/07/31 10:20:30;;;;;;;;;;;;;;;24.35;60.65;96605.86;622223;228;64729;-64
2023/07/31 10:22:59;;;;;;;;;;;;;;;24.35;60.58;96605.86;622149;228;67213;-64
2023/07/31 10:25:30;;;;;;;;;;;;;;;24.36;62.03;96612.02;622164;228;68231;-64
2023/07/31 10:27:58;;;;;;;;;;;;;;;24.35;62.48;96613.91;622104;228;64803;-64
2023/07/31 10:30:27;;;;;;;;;;;;;;;24.35;62.82;96615.81;622162;228;65092;-64
2023/07/31 10:32:55;;;;;;;;;;;;;;;24.34;63.78;96611.55;622154;228;64156;-64
2023/07/31 10:35:23;;;;;;;;;;;;;;;24.32;63.70;96614.52;622182;228;62885;-64
2023/07/31 10:37:50;;;;;;;;;;;;;;;24.33;63.52;96612.62;622223;228;67195;-65
2023/07/31 10:40:22;;;;;;;;;;;;;;;24.32;63.39;96611.05;622202;228;76056;-64
2023/07/31 10:42:52;;;;;;;;;;;;;;;24.32;63.38;96611.83;622117;228;64743;-66
2023/07/31 10:45:27;;;;;;;;;;;;;;;24.31;63.59;96610.26;622150;228;67238;-66
2023/07/31 10:48:02;;;;;;;;;;;;;;;24.32;63.53;96608.36;622179;228;66945;-65
2023/07/31 10:50:32;;;;;;;;;;;;;;;24.32;63.55;96605.67;622132;228;64915;-66
2023/07/31 10:53:04;;;;;;;;;;;;;;;24.32;63.43;96608.36;622220;228;69155;-67
2023/07/31 10:55:42;;;;;;;;;;;;;;;24.32;63.35;96605.67;622004;227;64549;-67
2023/07/31 10:58:13;;;;;;;;;;;;;;;24.31;63.40;96604.09;622140;228;62800;-65
2023/07/31 11:00:42;;;;;;;;;;;;;;;24.31;63.30;96596.83;622217;228;64281;-66
2023/07/31 11:03:12;;;;;;;;;;;;;;;24.31;63.60;96596.04;622217;228;66776;-65
2023/07/31 11:05:49;;;;;;;;;;;;;;;24.31;63.26;96591.46;622130;228;62741;-65
2023/07/31 11:08:19;;;;;;;;;;;;;;;24.31;63.35;96596.04;622288;228;67213;-65
2023/07/31 11:10:47;;;;;;;;;;;;;;;24.31;63.08;96591.46;622246;228;66825;-62
2023/07/31 11:13:15;;;;;;;;;;;;;;;24.31;63.03;96582.61;621174;227;64743;-66
2023/07/31 11:15:42;;;;;;;;;;;;;;;24.31;62.68;96594.14;621149;228;67092;-65
2023/07/31 11:18:10;;;;;;;;;;;;;;;24.31;63.38;96588.77;621102;228;66753;-68
2023/07/31 11:20:38;;;;;;;;;;;;;;;24.32;62.96;96586.87;621110;228;62648;-67
2023/07/31 11:23:10;;;;;;;;;;;;;;;24.32;62.80;96584.19;621158;228;67321;-66
2023/07/31 11:25:40;;;;;;;;;;;;;;;24.31;62.53;96572.66;620999;228;65081;-70
2023/07/31 11:28:08;;;;;;;;;;;;;;;24.32;62.08;96578.82;621125;228;64631;-67
2023/07/31 11:30:36;;;;;;;;;;;;;;;24.32;61.91;96570.77;621110;228;67130;-68
2023/07/31 11:33:04;;;;;;;;;;;;;;;24.33;61.90;96569.66;621018;228;66868;-72
2023/07/31 11:35:33;;;;;;;;;;;;;;;24.32;61.89;96568.08;621143;228;64729;-65
2023/07/31 11:38:01;;;;;;;;;;;;;;;24.33;61.05;96569.66;620643;228;64909;-67
2023/07/31 11:40:29;;;;;;;;;;;;;;;24.34;61.77;96565.89;621046;228;67052;-65
2023/07/31 11:42:58;;;;;;;;;;;;;;;24.34;61.80;96560.52;621079;228;64763;-65
2023/07/31 11:45:27;;;;;;;;;;;;;;;24.34;61.85;96568.58;621315;226;67214;-65
2023/07/31 11:47:56;;;;;;;;;;;;;;;24.34;61.71;96565.89;624889;227;66801;-65
2023/07/31 11:50:27;;;;;;;;;;;;;;;24.33;61.38;96559.70;625375;227;63558;-64
2023/07/31 11:52:56;;;;;;;;;;;;;;;24.34;61.52;96558.63;624599;227;64964;-66
2023/07/31 11:55:24;;;;;;;;;;;;;;;24.34;61.49;96557.84;625017;227;64980;-65
2023/07/31 11:57:53;;;;;;;;;;;;;;;24.34;61.55;96552.47;625113;227;63470;-64
2023/07/31 12:00:21;;;;;;;;;;;;;;;24.35;61.68;96556.73;625170;227;67182;-65
2023/07/31 12:02:49;;;;;;;;;;;;;;;24.36;61.71;96550.25;625188;227;67045;-64
2023/07/31 12:05:16;;;;;;;;;;;;;;;24.35;61.76;96545.98;624956;226;62601;-62
2023/07/31 12:07:45;;;;;;;;;;;;;;;24.34;60.71;96539.83;625304;227;64876;-69
2023/07/31 12:10:14;;;;;;;;;;;;;;;24.38;59.19;96534.63;625330;227;67059;-67
2023/07/31 12:12:42;;;;;;;;;;;;;;;24.37;59.00;96530.37;624319;226;64799;-67
2023/07/31 12:15:16;;;;;;;;;;;;;;;24.38;59.10;96523.89;624475;227;64682;-64
2023/07/31 12:17:45;;;;;;;;;;;;;;;24.38;59.20;96527.36;624475;227;67080;-67
2023/07/31 12:20:12;;;;;;;;;;;;;;;24.38;59.35;96516.63;624398;227;64595;-62
2023/07/31 12:22:40;;;;;;;;;;;;;;;24.39;59.14;96512.06;624444;227;65233;-61
2023/07/31 12:25:08;;;;;;;;;;;;;;;24.41;58.85;96515.22;624366;227;64910;-63
2023/07/31 12:27:35;;;;;;;;;;;;;;;24.41;59.50;96507.16;624485;227;64848;-64
2023/07/31 12:30:02;;;;;;;;;;;;;;;24.41;59.46;96504.48;624444;227;67171;-63
2023/07/31 12:32:32;;;;;;;;;;;;;;;24.41;59.43;96511.75;624454;227;64865;-64
2023/07/31 12:35:01;;;;;;;;;;;;;;;24.41;59.09;96520.59;624450;227;64772;-64
2023/07/31 12:37:29;;;;;;;;;;;;;;;24.41;58.77;96512.53;624439;227;65090;-66
2023/07/31 12:40:00;;;;;;;;;;;;;;;24.40;58.84;96505.59;624482;227;67071;-66
2023/07/31 12:42:26;;;;;;;;;;;;;;;24.40;58.73;96505.59;624355;227;62655;-66
2023/07/31 12:44:53;;;;;;;;;;;;;;;24.41;58.42;96501.79;624342;227;67199;-65
2023/07/31 12:47:21;;;;;;;;;;;;;;;24.41;58.07;96503.69;624432;227;64900;-65
2023/07/31 12:49:48;;;;;;;;;;;;;;;24.41;57.87;96501.00;624461;227;65744;-67
2023/07/31 12:52:16;;;;;;;;;;;;;;;24.40;58.22;96500.22;624488;227;67178;-66